Terminal Aerodrome Forecast
Issued by NWS

Home | Current Version | Previous Version | Text Only | Print | Product List | Glossary On
Versions: 1 2 3 4 5 6 7 8 9 10 11 12 13 14 15 16 17 18 19 20 21 22
397
FTUS43 KILX 241423 AAB
TAFCMI
TAF AMD
KCMI 241423Z 2414/2512 07008KT P6SM BKN010
     FM241700 04007KT P6SM BKN030
     FM242000 03007KT P6SM SCT040=

USA.gov is the U.S. government's official web portal to all federal, state and local government web resources and services.